createdAt,value
2022-10-09T09:48:58.033Z,98931.81
2022-10-09T09:51:32.080Z,98940.06
2022-10-09T09:54:16.172Z,98928.44
2022-10-09T09:57:10.619Z,98922.84
2022-10-09T09:59:35.336Z,98926.13
2022-10-09T10:02:02.259Z,98927.16
2022-10-09T10:04:28.423Z,98914.25
2022-10-09T10:06:54.441Z,98907.69
2022-10-09T10:09:20.335Z,98914.94
2022-10-09T10:12:02.703Z,98907.47
2022-10-09T10:14:29.642Z,98905.75
2022-10-09T10:16:58.481Z,98892.31
2022-10-09T10:22:50.979Z,98893.63
2022-10-09T10:25:19.169Z,98889.81
2022-10-09T10:27:50.114Z,98884.59
2022-10-09T10:30:19.011Z,98895.03
2022-10-09T10:32:53.547Z,98887.25
2022-10-09T10:35:36.338Z,98884.56
2022-10-09T10:38:12.649Z,98886.81
2022-10-09T10:40:46.907Z,98878.75
2022-10-09T10:43:38.313Z,98884.31
2022-10-09T10:46:27.650Z,98880.88
2022-10-09T10:48:53.523Z,98875.41
2022-10-09T10:51:42.483Z,98870.41
2022-10-09T10:54:32.281Z,98871.13
2022-10-09T10:57:09.623Z,98864.13
2022-10-09T10:59:40.044Z,98862.09
2022-10-09T11:02:26.131Z,98863.59
2022-10-09T11:05:14.717Z,98853.44
2022-10-09T11:08:16.382Z,98851.69
2022-10-09T11:11:06.637Z,98850.16
2022-10-09T11:13:44.312Z,98844.91
2022-10-09T11:16:34.687Z,98839.22
2022-10-09T11:19:41.817Z,98832.91
2022-10-09T11:22:29.036Z,98831.50
2022-10-09T11:25:20.536Z,98827.19
2022-10-09T11:28:02.344Z,98820.75
2022-10-09T11:30:36.413Z,98815.22
2022-10-09T11:33:24.223Z,98814.41
2022-10-09T11:35:58.441Z,98809.72
2022-10-09T11:38:35.046Z,98807.34
2022-10-09T11:41:06.495Z,98802.44
2022-10-09T11:43:53.892Z,98795.53
2022-10-09T11:46:49.334Z,98796.91
2022-10-09T11:49:21.215Z,98788.25
2022-10-09T11:52:08.405Z,98785.91
2022-10-09T11:54:34.862Z,98780.38
2022-10-09T11:57:06.190Z,98778.25
2022-10-09T11:59:41.354Z,98777.94
2022-10-09T12:02:25.983Z,98769.84
2022-10-09T12:04:55.253Z,98770.09
2022-10-09T12:07:31.530Z,98769.50
2022-10-09T12:10:02.056Z,98766.09
2022-10-09T12:12:28.670Z,98758.81
2022-10-09T12:14:54.463Z,98765.34
2022-10-09T12:17:22.921Z,98756.69
2022-10-09T12:19:56.237Z,98752.03
2022-10-09T12:22:42.682Z,98739.16
2022-10-09T12:25:23.080Z,98744.13
2022-10-09T12:27:53.047Z,98737.59
2022-10-09T12:30:21.794Z,98730.34
2022-10-09T12:32:54.560Z,98726.16
2022-10-09T12:35:34.152Z,98710.00
2022-10-09T12:38:00.148Z,98716.88
2022-10-09T12:40:29.013Z,98714.09
2022-10-09T12:42:56.607Z,98711.66
2022-10-09T12:45:25.783Z,98715.00
2022-10-09T12:47:53.489Z,98699.03
2022-10-09T12:50:26.648Z,98704.63
2022-10-09T12:52:56.744Z,98704.50
2022-10-09T12:55:26.760Z,98696.28
2022-10-09T12:57:55.132Z,98700.63
2022-10-09T13:00:20.962Z,98699.22
2022-10-09T13:02:46.784Z,98690.66
2022-10-09T13:05:12.762Z,98691.72
2022-10-09T13:07:38.632Z,98694.25
2022-10-09T13:10:17.577Z,98693.28
2022-10-09T13:12:50.497Z,98675.13
2022-10-09T13:15:34.716Z,98675.72
2022-10-09T13:18:01.017Z,98677.69
2022-10-09T13:20:31.735Z,98664.47
2022-10-09T13:22:59.951Z,98669.28
2022-10-09T13:25:31.253Z,98657.91
2022-10-09T13:27:57.373Z,98664.94
2022-10-09T13:30:23.424Z,98668.63
2022-10-09T13:32:49.338Z,98663.47
2022-10-09T13:35:16.234Z,98664.53
2022-10-09T13:37:41.897Z,98664.22
2022-10-09T13:40:13.720Z,98654.13
2022-10-09T13:42:39.723Z,98652.75
2022-10-09T13:45:06.167Z,98645.50
2022-10-09T13:47:31.903Z,98641.41
2022-10-09T13:49:57.859Z,98645.97
2022-10-09T13:52:23.533Z,98638.84
2022-10-09T13:54:49.443Z,98636.66
2022-10-09T13:57:15.111Z,98640.16
2022-10-09T13:59:41.114Z,98633.63
2022-10-09T14:02:06.898Z,98634.19
2022-10-09T14:04:32.777Z,98632.00
2022-10-09T14:06:58.471Z,98630.59
2022-10-09T14:09:24.152Z,98624.91
2022-10-09T14:11:49.992Z,98626.44
2022-10-09T14:14:15.660Z,98625.03
2022-10-09T14:16:41.452Z,98610.75
2022-10-09T14:19:07.293Z,98615.31
2022-10-09T14:21:33.376Z,98613.19
2022-10-09T14:24:01.420Z,98609.38
2022-10-09T14:26:28.263Z,98610.44
2022-10-09T14:28:57.118Z,98615.72
2022-10-09T14:31:22.922Z,98613.28
2022-10-09T14:33:48.853Z,98616.53
2022-10-09T14:36:18.327Z,98607.16
2022-10-09T14:38:44.455Z,98608.56
2022-10-09T14:41:11.517Z,98605.44
2022-10-09T14:43:37.383Z,98606.44
2022-10-09T14:46:11.336Z,98602.22
2022-10-09T14:48:38.813Z,98597.81
2022-10-09T14:51:06.881Z,98603.03
2022-10-09T14:53:33.206Z,98602.81
2022-10-09T14:56:04.195Z,98602.53
2022-10-09T14:58:31.008Z,98607.31
2022-10-09T15:00:57.342Z,98604.97
2022-10-09T15:03:28.003Z,98590.75
2022-10-09T15:06:01.254Z,98589.94
2022-10-09T15:08:29.360Z,98591.97
2022-10-09T15:10:55.182Z,98589.41
2022-10-09T15:13:20.870Z,98582.03
2022-10-09T15:15:46.786Z,98582.16
2022-10-09T15:18:12.656Z,98574.00
2022-10-09T15:20:38.414Z,98567.72
2022-10-09T15:23:04.296Z,98575.63
2022-10-09T15:25:30.981Z,98564.19
2022-10-09T15:28:04.021Z,98576.34
2022-10-09T15:30:29.914Z,98568.75
2022-10-09T15:32:56.366Z,98567.22
2022-10-09T15:35:22.410Z,98566.28
2022-10-09T15:37:50.335Z,98559.41
2022-10-09T15:40:19.358Z,98560.09
2022-10-09T15:42:45.247Z,98560.53
2022-10-09T15:45:11.290Z,98551.88
2022-10-09T15:47:50.562Z,98554.81
2022-10-09T15:50:16.813Z,98546.75
2022-10-09T15:52:42.515Z,98547.56
2022-10-09T15:55:08.194Z,98542.66
2022-10-09T15:57:33.888Z,98541.84
2022-10-09T15:59:59.597Z,98543.72
2022-10-09T16:02:25.269Z,98544.19
2022-10-09T16:04:51.309Z,98539.28
2022-10-09T16:07:17.009Z,98547.00
2022-10-09T16:09:42.722Z,98537.75
2022-10-09T16:12:08.407Z,98537.63
2022-10-09T16:14:34.129Z,98534.00
2022-10-09T16:16:59.862Z,98528.50
2022-10-09T16:19:25.529Z,98533.75
2022-10-09T16:21:51.578Z,98537.56
2022-10-09T16:24:17.722Z,98530.69
2022-10-09T16:26:43.676Z,98530.78
2022-10-09T16:29:09.378Z,98545.31
2022-10-09T16:31:35.807Z,98538.41
2022-10-09T16:34:06.223Z,98537.09
2022-10-09T16:36:32.213Z,98533.44
2022-10-09T16:38:57.952Z,98522.47
2022-10-09T16:41:24.349Z,98528.97
2022-10-09T16:43:54.865Z,98532.50
2022-10-09T16:46:27.006Z,98529.91
2022-10-09T16:48:55.103Z,98524.84
2022-10-09T16:51:25.198Z,98528.44
2022-10-09T16:53:52.881Z,98529.06
2022-10-09T16:56:22.259Z,98531.59
2022-10-09T16:58:48.587Z,98528.41
2022-10-09T17:01:15.095Z,98530.94
2022-10-09T17:03:41.301Z,98532.63
2022-10-09T17:06:13.114Z,98522.00
2022-10-09T17:08:39.261Z,98523.72
2022-10-09T17:11:09.540Z,98527.47
2022-10-09T17:13:36.194Z,98520.94
2022-10-09T17:16:07.986Z,98518.91
2022-10-09T17:18:34.632Z,98522.50
2022-10-09T17:21:05.391Z,98527.47
2022-10-09T17:23:31.763Z,98530.59
2022-10-09T17:25:58.395Z,98531.00
2022-10-09T17:28:24.600Z,98530.63
2022-10-09T17:30:50.847Z,98522.06
2022-10-09T17:33:19.739Z,98526.44
2022-10-09T17:35:46.005Z,98525.84
2022-10-09T17:38:11.770Z,98527.78
2022-10-09T17:40:39.342Z,98522.25
2022-10-09T17:43:06.358Z,98519.44
2022-10-09T17:45:39.635Z,98530.97
2022-10-09T17:48:05.998Z,98524.97
2022-10-09T17:50:32.684Z,98523.19
2022-10-09T17:52:58.452Z,98526.94
2022-10-09T17:55:24.211Z,98523.47
2022-10-09T17:57:50.168Z,98532.56
2022-10-09T18:00:20.884Z,98524.81
2022-10-09T18:02:48.300Z,98525.03
2022-10-09T18:05:14.355Z,98514.38
2022-10-09T18:07:40.383Z,98519.34
2022-10-09T18:10:06.979Z,98516.28
2022-10-09T18:12:32.660Z,98518.94
2022-10-09T18:14:59.082Z,98530.44
2022-10-09T18:17:25.302Z,98518.94
2022-10-09T18:19:51.200Z,98515.47
2022-10-09T18:22:17.450Z,98515.47
2022-10-09T18:24:43.282Z,98512.56
2022-10-09T18:27:08.988Z,98508.28
2022-10-09T18:29:35.806Z,98503.75
2022-10-09T18:32:01.522Z,98499.44
2022-10-09T18:34:27.269Z,98499.66
2022-10-09T18:36:54.075Z,98495.34
2022-10-09T18:39:20.866Z,98483.03
2022-10-09T18:41:47.024Z,98482.22
2022-10-09T18:44:17.488Z,98487.56
2022-10-09T18:46:50.756Z,98488.59
2022-10-09T18:49:21.230Z,98480.75
2022-10-09T18:51:48.162Z,98480.97
2022-10-09T18:54:18.276Z,98482.22
2022-10-09T18:56:44.780Z,98486.13
2022-10-09T18:59:14.267Z,98480.84
2022-10-09T19:01:40.192Z,98479.41
2022-10-09T19:04:05.981Z,98479.63
2022-10-09T19:06:31.756Z,98477.38
2022-10-09T19:08:59.995Z,98471.44
2022-10-09T19:11:27.761Z,98468.94
2022-10-09T19:13:54.380Z,98473.06
2022-10-09T19:16:21.362Z,98468.16
2022-10-09T19:18:47.070Z,98472.69
2022-10-09T19:21:14.243Z,98459.75
2022-10-09T19:23:40.881Z,98461.00
2022-10-09T19:26:06.961Z,98467.38
2022-10-09T19:28:36.966Z,98457.13
2022-10-09T19:31:08.667Z,98454.47
2022-10-09T19:33:34.668Z,98444.81
2022-10-09T19:36:00.674Z,98447.91
2022-10-09T19:38:27.122Z,98448.31
2022-10-09T19:40:53.688Z,98446.06
2022-10-09T19:43:20.479Z,98432.34
2022-10-09T19:45:48.616Z,98444.44
2022-10-09T19:48:16.001Z,98444.44
2022-10-09T19:50:43.577Z,98441.53
2022-10-09T19:53:09.988Z,98446.47
2022-10-09T19:55:36.762Z,98438.28
2022-10-09T19:58:03.027Z,98434.34
2022-10-09T20:00:29.227Z,98434.16
2022-10-09T20:02:55.266Z,98440.69
2022-10-09T20:05:22.331Z,98435.75
2022-10-09T20:07:48.866Z,98437.19
2022-10-09T20:10:14.797Z,98433.47
2022-10-09T20:12:40.510Z,98428.75
2022-10-09T20:15:07.090Z,98432.22
2022-10-09T20:17:32.979Z,98426.69
2022-10-09T20:19:58.665Z,98428.31
2022-10-09T20:22:24.387Z,98427.50
2022-10-09T20:24:52.552Z,98428.53
2022-10-09T20:27:18.258Z,98426.88
2022-10-09T20:29:44.359Z,98430.16
2022-10-09T20:32:11.429Z,98425.66
2022-10-09T20:34:37.661Z,98423.41
2022-10-09T20:37:03.578Z,98420.94
2022-10-09T20:39:30.463Z,98423.00
2022-10-09T20:41:56.307Z,98425.06
2022-10-09T20:44:22.339Z,98421.81
2022-10-09T20:46:48.037Z,98417.50
2022-10-09T20:49:14.697Z,98419.34
2022-10-09T20:51:41.082Z,98410.31
2022-10-09T20:54:13.567Z,98411.56
2022-10-09T20:56:39.248Z,98405.00
2022-10-09T20:59:04.959Z,98408.06
2022-10-09T21:01:30.968Z,98412.19
2022-10-09T21:03:58.363Z,98408.94
2022-10-09T21:06:24.312Z,98405.88
2022-10-09T21:08:50.354Z,98399.31
2022-10-09T21:11:17.301Z,98394.41
2022-10-09T21:13:44.012Z,98392.78
2022-10-09T21:16:13.113Z,98393.00
2022-10-09T21:18:39.614Z,98396.47
2022-10-09T21:21:08.714Z,98395.06
2022-10-09T21:23:34.676Z,98399.78
2022-10-09T21:26:00.354Z,98401.19
2022-10-09T21:28:26.498Z,98399.78
2022-10-09T21:30:52.241Z,98393.22
2022-10-09T21:33:18.268Z,98397.97
2022-10-09T21:35:50.741Z,98400.03
2022-10-09T21:38:21.588Z,98391.63
2022-10-09T21:40:50.605Z,98392.00
2022-10-09T21:43:17.277Z,98386.06
2022-10-09T21:45:44.652Z,98388.91
2022-10-09T21:48:14.788Z,98388.53
2022-10-09T21:50:40.654Z,98379.91
2022-10-09T21:53:06.455Z,98382.38
2022-10-09T21:55:32.495Z,98387.69
2022-10-09T21:57:58.185Z,98384.66
2022-10-09T22:00:24.007Z,98389.56
2022-10-09T22:02:50.049Z,98391.22
2022-10-09T22:05:15.965Z,98389.19
2022-10-09T22:07:41.636Z,98383.66
2022-10-09T22:10:07.669Z,98385.69
2022-10-09T22:12:33.472Z,98380.78
2022-10-09T22:14:59.383Z,98387.56
2022-10-09T22:17:25.299Z,98389.63
2022-10-09T22:19:51.240Z,98390.25
2022-10-09T22:22:17.334Z,98390.66
2022-10-09T22:24:43.193Z,98381.19
2022-10-09T22:27:08.875Z,98382.44
2022-10-09T22:29:35.003Z,98385.09
2022-10-09T22:32:00.784Z,98385.50
2022-10-09T22:34:26.682Z,98374.03
2022-10-09T22:36:52.384Z,98374.25
2022-10-09T22:39:18.152Z,98367.50
2022-10-09T22:41:43.833Z,98360.94
2022-10-09T22:44:10.704Z,98360.31
2022-10-09T22:46:39.391Z,98361.16
2022-10-09T22:49:06.627Z,98355.22
2022-10-09T22:51:32.820Z,98362.34
2022-10-09T22:53:59.464Z,98356.41
2022-10-09T22:56:39.189Z,98366.06
2022-10-09T22:59:06.049Z,98367.28
2022-10-09T23:01:44.037Z,98359.50
2022-10-09T23:04:12.434Z,98357.66
2022-10-09T23:06:39.095Z,98362.19
2022-10-09T23:09:06.357Z,98359.31
2022-10-09T23:11:32.611Z,98358.25
2022-10-09T23:13:59.349Z,98356.63
2022-10-09T23:16:27.678Z,98357.06
2022-10-09T23:18:53.743Z,98360.94
2022-10-09T23:21:21.631Z,98365.25
2022-10-09T23:23:47.789Z,98370.16
2022-10-09T23:26:17.806Z,98368.69
2022-10-09T23:28:47.604Z,98366.25
2022-10-09T23:31:14.592Z,98369.31
2022-10-09T23:33:42.688Z,98369.53
2022-10-09T23:36:11.453Z,98360.91
2022-10-09T23:38:37.854Z,98358.66
2022-10-09T23:41:05.964Z,98367.88
2022-10-09T23:43:33.907Z,98357.66
2022-10-09T23:46:01.494Z,98359.91
2022-10-09T23:48:28.076Z,98357.81
2022-10-09T23:50:54.872Z,98352.91
2022-10-09T23:53:21.504Z,98349.00
2022-10-09T23:55:47.195Z,98354.53
2022-10-09T23:58:17.188Z,98359.25
